createdAt,value
2023-04-11T00:01:18.404Z,100590.16
2023-04-11T00:04:04.378Z,100598.63
2023-04-11T00:06:50.420Z,100607.22
2023-04-11T00:09:36.188Z,100608.00
2023-04-11T00:12:21.880Z,100610.50
2023-04-11T00:15:08.827Z,100609.47
2023-04-11T00:17:55.122Z,100612.03
2023-04-11T00:20:40.869Z,100609.41
2023-04-11T00:23:26.406Z,100617.13
2023-04-11T00:26:11.875Z,100620.69
2023-04-11T00:28:58.224Z,100621.56
2023-04-11T00:31:43.496Z,100621.63
2023-04-11T00:34:29.280Z,100610.41
2023-04-11T00:37:14.612Z,100606.06
2023-04-11T00:40:00.064Z,100611.19
2023-04-11T00:42:45.697Z,100606.78
2023-04-11T00:45:31.099Z,100607.53
2023-04-11T00:48:17.828Z,100617.03
2023-04-11T00:51:03.307Z,100612.72
2023-04-11T00:53:49.049Z,100611.03
2023-04-11T00:56:35.351Z,100626.44
2023-04-11T00:59:20.761Z,100613.56
2023-04-11T01:02:06.330Z,100613.44
2023-04-11T01:04:52.388Z,100618.63
2023-04-11T01:07:40.200Z,100617.78
2023-04-11T01:10:30.875Z,100608.28
2023-04-11T01:13:17.031Z,100613.53
2023-04-11T01:16:04.161Z,100602.34
2023-04-11T01:18:50.091Z,100605.72
2023-04-11T01:21:37.906Z,100598.81
2023-04-11T01:24:24.063Z,100591.13
2023-04-11T01:27:10.512Z,100591.16
2023-04-11T01:29:56.661Z,100596.38
2023-04-11T01:32:43.700Z,100596.34
2023-04-11T01:35:29.707Z,100596.38
2023-04-11T01:38:15.419Z,100590.47
2023-04-11T01:41:01.154Z,100593.06
2023-04-11T01:43:47.351Z,100600.84
2023-04-11T01:46:33.569Z,100590.56
2023-04-11T01:49:19.292Z,100595.00
2023-04-11T01:52:05.940Z,100594.13
2023-04-11T01:54:51.551Z,100591.59
2023-04-11T01:57:36.914Z,100593.31
2023-04-11T02:00:22.556Z,100600.22
2023-04-11T02:03:08.248Z,100595.03
2023-04-11T02:05:55.019Z,100601.13
2023-04-11T02:08:40.632Z,100594.22
2023-04-11T02:11:26.142Z,100590.69
2023-04-11T02:14:14.482Z,100591.56
2023-04-11T02:16:59.908Z,100593.94
2023-04-11T02:19:46.177Z,100593.09
2023-04-11T02:22:32.693Z,100595.69
2023-04-11T02:25:18.164Z,100599.84
2023-04-11T02:28:05.121Z,100610.25
2023-04-11T02:30:52.821Z,100612.94
2023-04-11T02:33:38.418Z,100607.59
2023-04-11T02:36:23.814Z,100621.28
2023-04-11T02:39:09.691Z,100610.75
2023-04-11T02:41:55.710Z,100606.31
2023-04-11T02:44:41.429Z,100604.84
2023-04-11T02:47:27.136Z,100601.63
2023-04-11T02:50:15.152Z,100594.09
2023-04-11T02:53:06.278Z,100596.00
2023-04-11T02:55:53.741Z,100587.44
2023-04-11T02:58:41.948Z,100585.06
2023-04-11T03:01:28.251Z,100591.06
2023-04-11T03:04:15.124Z,100590.31
2023-04-11T03:07:17.318Z,100591.13
2023-04-11T03:10:02.633Z,100577.44
2023-04-11T03:12:48.184Z,100582.53
2023-04-11T03:15:34.450Z,100571.28
2023-04-11T03:18:24.586Z,100574.66
2023-04-11T03:21:11.621Z,100574.63
2023-04-11T03:24:02.488Z,100571.16
2023-04-11T03:26:48.265Z,100574.59
2023-04-11T03:29:35.362Z,100568.53
2023-04-11T03:32:39.429Z,100564.13
2023-04-11T03:35:24.744Z,100557.19
2023-04-11T03:38:10.008Z,100566.59
2023-04-11T03:40:55.544Z,100561.44
2023-04-11T03:43:44.431Z,100557.03
2023-04-11T03:46:29.783Z,100558.66
2023-04-11T03:49:15.606Z,100551.69
2023-04-11T03:52:04.492Z,100552.50
2023-04-11T03:54:50.252Z,100555.81
2023-04-11T03:57:36.639Z,100559.34
2023-04-11T04:00:22.706Z,100556.72
2023-04-11T04:03:19.399Z,100544.69
2023-04-11T04:06:05.537Z,100544.59
2023-04-11T04:08:51.659Z,100533.41
2023-04-11T04:11:39.068Z,100536.88
2023-04-11T04:14:24.387Z,100535.97
2023-04-11T04:17:11.578Z,100534.13
2023-04-11T04:19:57.067Z,100529.94
2023-04-11T04:22:42.381Z,100528.16
2023-04-11T04:25:28.592Z,100529.03
2023-04-11T04:28:17.928Z,100525.59
2023-04-11T04:31:04.074Z,100516.03
2023-04-11T04:33:58.745Z,100516.84
2023-04-11T04:36:47.878Z,100500.50
2023-04-11T04:39:39.448Z,100504.91
2023-04-11T04:42:29.559Z,100501.41
2023-04-11T04:45:20.793Z,100501.44
2023-04-11T04:48:06.821Z,100499.63
2023-04-11T04:50:52.510Z,100500.50
2023-04-11T04:53:39.092Z,100504.84
2023-04-11T04:56:30.730Z,100494.53
2023-04-11T04:59:18.789Z,100489.34
2023-04-11T05:02:10.515Z,100478.94
2023-04-11T05:04:57.548Z,100474.69
2023-04-11T05:07:45.335Z,100470.50
2023-04-11T05:10:31.973Z,100467.22
2023-04-11T05:13:17.978Z,100467.28
2023-04-11T05:16:03.314Z,100447.59
2023-04-11T05:18:49.700Z,100451.00
2023-04-11T05:21:37.894Z,100458.75
2023-04-11T05:24:23.705Z,100451.75
2023-04-11T05:27:09.870Z,100455.16
2023-04-11T05:29:55.358Z,100453.44
2023-04-11T05:32:43.031Z,100458.63
2023-04-11T05:35:29.996Z,100455.16
2023-04-11T05:38:17.090Z,100450.97
2023-04-11T05:41:02.520Z,100452.66
2023-04-11T05:43:48.054Z,100454.38
2023-04-11T05:46:35.806Z,100459.53
2023-04-11T05:49:21.467Z,100456.06
2023-04-11T05:52:07.877Z,100463.66
2023-04-11T05:54:53.138Z,100458.41
2023-04-11T05:57:38.490Z,100464.31
2023-04-11T06:00:25.978Z,100466.75
2023-04-11T06:03:11.374Z,100463.09
2023-04-11T06:05:56.773Z,100460.28
2023-04-11T06:08:42.943Z,100471.19
2023-04-11T06:11:28.268Z,100470.13
2023-04-11T06:14:13.660Z,100468.28
2023-04-11T06:16:58.919Z,100476.03
2023-04-11T06:19:44.263Z,100470.06
2023-04-11T06:22:29.471Z,100474.38
2023-04-11T06:25:14.724Z,100476.13
2023-04-11T06:28:00.016Z,100464.19
2023-04-11T06:30:45.233Z,100460.81
2023-04-11T06:33:31.024Z,100466.91
2023-04-11T06:36:16.603Z,100460.91
2023-04-11T06:39:01.891Z,100461.03
2023-04-11T06:41:47.963Z,100456.88
2023-04-11T06:44:42.535Z,100457.13
2023-04-11T06:47:27.833Z,100454.00
2023-04-11T06:50:13.430Z,100456.06
2023-04-11T06:52:59.277Z,100458.13
2023-04-11T06:55:48.769Z,100455.09
2023-04-11T06:58:34.168Z,100433.78
2023-04-11T07:01:21.096Z,100441.75
2023-04-11T07:04:07.366Z,100438.53
2023-04-11T07:06:53.111Z,100442.28
2023-04-11T07:09:38.702Z,100439.13
2023-04-11T07:12:24.027Z,100435.84
2023-04-11T07:15:10.085Z,100436.03
2023-04-11T07:17:55.856Z,100424.97
2023-04-11T07:20:41.457Z,100419.94
2023-04-11T07:23:26.938Z,100419.28
2023-04-11T07:26:14.594Z,100405.66
2023-04-11T07:29:00.942Z,100385.94
2023-04-11T07:31:47.747Z,100380.03
2023-04-11T07:34:33.373Z,100370.59
2023-04-11T07:37:19.690Z,100362.94
2023-04-11T07:40:11.970Z,100361.31
2023-04-11T07:42:57.643Z,100361.44
2023-04-11T07:45:43.141Z,100354.59
2023-04-11T07:48:30.648Z,100364.19
2023-04-11T07:51:17.281Z,100359.06
2023-04-11T07:54:02.663Z,100357.38
2023-04-11T07:56:48.111Z,100346.16
2023-04-11T07:59:33.316Z,100342.72
2023-04-11T08:02:18.811Z,100340.13
2023-04-11T08:05:04.887Z,100320.25
2023-04-11T08:07:50.916Z,100326.31
2023-04-11T08:10:36.283Z,100315.06
2023-04-11T08:13:21.576Z,100308.16
2023-04-11T08:16:08.568Z,100311.59
2023-04-11T08:18:53.876Z,100298.59
2023-04-11T08:21:39.039Z,100295.16
2023-04-11T08:24:24.470Z,100282.16
2023-04-11T08:27:09.927Z,100275.22
2023-04-11T08:29:57.555Z,100272.59
2023-04-11T08:32:43.341Z,100270.88
2023-04-11T08:35:28.663Z,100274.31
2023-04-11T08:38:14.321Z,100259.56
2023-04-11T08:41:00.254Z,100253.44
2023-04-11T08:43:47.132Z,100246.38
2023-04-11T08:46:33.914Z,100231.56
2023-04-11T08:49:19.707Z,100231.56
2023-04-11T08:52:05.279Z,100225.53
2023-04-11T08:54:56.616Z,100221.22
2023-04-11T08:57:42.495Z,100219.50
2023-04-11T09:00:29.276Z,100209.13
2023-04-11T09:03:16.999Z,100211.69
2023-04-11T09:06:10.518Z,100202.19
2023-04-11T09:08:55.838Z,100185.66
2023-04-11T09:11:55.398Z,100181.38
2023-04-11T09:14:41.288Z,100168.34
2023-04-11T09:17:42.074Z,100152.72
2023-04-11T09:20:30.234Z,100154.44
2023-04-11T09:23:24.334Z,100138.81
2023-04-11T09:26:12.919Z,100137.06
2023-04-11T09:28:58.461Z,100131.03
2023-04-11T09:31:45.770Z,100125.88
2023-04-11T09:34:31.368Z,100121.53
2023-04-11T09:37:16.729Z,100111.13
2023-04-11T09:40:02.232Z,100103.28
2023-04-11T09:42:48.985Z,100094.53
2023-04-11T09:45:41.193Z,100095.34
2023-04-11T09:48:46.139Z,100077.97
2023-04-11T09:51:36.875Z,100069.31
2023-04-11T09:54:22.610Z,100067.50
2023-04-11T09:57:08.557Z,100057.03
2023-04-11T09:59:55.549Z,100047.44
2023-04-11T10:02:42.049Z,100033.44
2023-04-11T10:05:29.991Z,100028.16
2023-04-11T10:08:30.692Z,100007.16
2023-04-11T10:11:18.636Z,99993.09
2023-04-11T10:14:04.418Z,99977.19
2023-04-11T10:17:21.239Z,99954.34
2023-04-11T10:20:50.459Z,99957.66
2023-04-11T10:24:10.032Z,99942.72
2023-04-11T10:26:58.099Z,99930.28
2023-04-11T10:29:48.807Z,99929.22
2023-04-11T10:32:35.457Z,99912.66
2023-04-11T10:35:22.835Z,99900.59
2023-04-11T10:38:37.468Z,99887.91
2023-04-11T10:41:23.008Z,99878.56
2023-04-11T10:44:21.025Z,99876.13
2023-04-11T10:47:17.743Z,99867.66
2023-04-11T10:50:03.790Z,99861.81
2023-04-11T10:52:49.714Z,99853.34
2023-04-11T10:55:46.242Z,99849.28
2023-04-11T10:58:40.619Z,99838.16
2023-04-11T11:01:32.159Z,99825.16
2023-04-11T11:04:39.593Z,99807.78
2023-04-11T11:07:25.495Z,99796.56
2023-04-11T11:10:11.245Z,99776.63
2023-04-11T11:12:56.952Z,99771.34
2023-04-11T11:15:48.128Z,99773.03
2023-04-11T11:18:34.370Z,99760.88
2023-04-11T11:21:27.803Z,99753.97
2023-04-11T11:24:13.629Z,99746.16
2023-04-11T11:26:59.093Z,99741.78
2023-04-11T11:29:44.767Z,99729.72
2023-04-11T11:32:32.887Z,99720.94
2023-04-11T11:35:18.732Z,99714.63
2023-04-11T11:38:04.337Z,99706.63
2023-04-11T11:40:50.362Z,99694.47
2023-04-11T11:43:37.270Z,99688.34
2023-04-11T11:46:22.864Z,99673.38
2023-04-11T11:49:08.721Z,99666.25
2023-04-11T11:51:54.391Z,99656.56
2023-04-11T11:54:47.347Z,99644.44
2023-04-11T11:57:33.839Z,99628.84
2023-04-11T12:00:27.251Z,99614.94
2023-04-11T12:03:12.784Z,99599.34
2023-04-11T12:05:58.479Z,99592.38
2023-04-11T12:08:54.051Z,99575.84
2023-04-11T12:11:41.511Z,99559.31
2023-04-11T12:14:27.337Z,99561.72
2023-04-11T12:17:13.058Z,99542.41
2023-04-11T12:19:58.335Z,99528.81
2023-04-11T12:22:43.764Z,99527.19
2023-04-11T12:25:29.453Z,99528.16
2023-04-11T12:28:14.984Z,99515.06
2023-04-11T12:31:00.577Z,99508.91
2023-04-11T12:33:45.909Z,99487.84
2023-04-11T12:39:21.764Z,99461.84
2023-04-11T12:42:07.971Z,99448.63
2023-04-11T12:44:54.715Z,99435.59
2023-04-11T12:47:40.972Z,99431.94
2023-04-11T12:50:26.161Z,99410.44
2023-04-11T12:53:11.659Z,99402.75
2023-04-11T12:55:56.928Z,99383.06
2023-04-11T12:58:42.423Z,99384.09
2023-04-11T13:01:28.339Z,99376.41
2023-04-11T13:04:14.279Z,99376.53
2023-04-11T13:07:03.532Z,99364.50
2023-04-11T13:09:49.853Z,99345.53
2023-04-11T13:12:39.873Z,99345.53
2023-04-11T13:15:25.635Z,99332.50
2023-04-11T13:18:11.200Z,99307.41
2023-04-11T13:20:56.730Z,99298.75
2023-04-11T13:23:42.063Z,99281.34
2023-04-11T13:26:28.666Z,99274.47
2023-04-11T13:29:14.064Z,99272.81
2023-04-11T13:31:59.430Z,99251.97
2023-04-11T13:34:44.700Z,99249.28
2023-04-11T13:37:30.206Z,99232.63
2023-04-11T13:40:16.156Z,99223.91
2023-04-11T13:43:01.390Z,99206.44
2023-04-11T13:45:46.810Z,99186.22
2023-04-11T13:48:32.707Z,99191.03
2023-04-11T13:51:19.263Z,99176.88
2023-04-11T13:54:04.920Z,99164.50
2023-04-11T13:56:50.341Z,99144.16
2023-04-11T13:59:36.377Z,99131.16
2023-04-11T14:02:22.023Z,99111.69
2023-04-11T14:05:08.927Z,99092.69
2023-04-11T14:07:54.599Z,99078.22
2023-04-11T14:10:39.868Z,99066.06
2023-04-11T14:13:25.211Z,99055.78
2023-04-11T14:16:11.111Z,99055.81
2023-04-11T14:18:56.584Z,99046.13
2023-04-11T14:21:42.172Z,99034.19
2023-04-11T14:24:28.422Z,99021.38
2023-04-11T14:27:13.892Z,99005.03
2023-04-11T14:29:59.116Z,98989.53
2023-04-11T14:32:44.392Z,98980.09
2023-04-11T14:35:29.853Z,98976.00
2023-04-11T14:38:15.938Z,98958.09
2023-04-11T14:41:01.343Z,98951.28
2023-04-11T14:43:46.703Z,98946.13
2023-04-11T14:46:31.960Z,98937.56
2023-04-11T14:49:17.278Z,98919.19
2023-04-11T14:52:03.222Z,98908.69
2023-04-11T14:54:49.001Z,98893.75
2023-04-11T14:57:48.817Z,98886.47
2023-04-11T15:00:34.470Z,98876.00
2023-04-11T15:03:20.254Z,98858.63
2023-04-11T15:06:06.347Z,98845.50
2023-04-11T15:08:52.402Z,98825.66
2023-04-11T15:11:38.274Z,98806.81
2023-04-11T15:14:29.438Z,98794.75
2023-04-11T15:17:15.008Z,98781.88
2023-04-11T15:20:00.763Z,98759.59
2023-04-11T15:22:46.622Z,98744.94
2023-04-11T15:25:32.449Z,98740.66
2023-04-11T15:28:17.738Z,98736.31
2023-04-11T15:31:05.000Z,98715.63
2023-04-11T15:33:50.490Z,98707.84
2023-04-11T15:36:38.726Z,98701.00
2023-04-11T15:39:24.051Z,98683.78
2023-04-11T15:42:09.463Z,98675.19
2023-04-11T15:44:54.857Z,98667.69
2023-04-11T15:47:40.723Z,98656.47
2023-04-11T15:50:28.940Z,98656.03
2023-04-11T15:53:14.242Z,98636.19
2023-04-11T15:55:59.591Z,98624.16
2023-04-11T15:58:44.959Z,98622.63
2023-04-11T16:01:31.091Z,98615.78
2023-04-11T16:04:16.830Z,98601.16
2023-04-11T16:07:02.436Z,98591.59
2023-04-11T16:09:47.787Z,98587.31
2023-04-11T16:12:33.047Z,98574.28
2023-04-11T16:15:19.413Z,98562.97
2023-04-11T16:18:04.898Z,98548.22
2023-04-11T16:20:50.099Z,98539.50
2023-04-11T16:23:35.556Z,98535.19
2023-04-11T16:26:21.278Z,98530.84
2023-04-11T16:29:06.927Z,98530.03
2023-04-11T16:31:52.452Z,98517.91
2023-04-11T16:34:37.769Z,98505.00
2023-04-11T16:37:23.542Z,98500.69
2023-04-11T16:40:12.285Z,98482.63
2023-04-11T16:42:57.828Z,98475.72
2023-04-11T16:45:43.369Z,98473.16
2023-04-11T16:48:30.692Z,98457.66
2023-04-11T16:51:18.458Z,98456.06
2023-04-11T16:54:09.597Z,98457.88
2023-04-11T16:56:54.963Z,98449.34
2023-04-11T16:59:40.217Z,98450.41
2023-04-11T17:02:26.090Z,98434.06
2023-04-11T17:05:11.517Z,98433.72
2023-04-11T17:07:56.989Z,98450.75
2023-04-11T17:10:42.753Z,98468.59
2023-04-11T17:13:28.175Z,98452.25
2023-04-11T17:16:13.886Z,98442.84
2023-04-11T17:18:59.199Z,98448.44
2023-04-11T17:21:44.605Z,98443.16
2023-04-11T17:24:30.160Z,98451.53
2023-04-11T17:27:15.677Z,98451.13
2023-04-11T17:30:02.351Z,98452.19
2023-04-11T17:32:48.955Z,98465.47
2023-04-11T17:35:34.869Z,98460.69
2023-04-11T17:38:20.579Z,98448.81
2023-04-11T17:41:14.368Z,98462.72
2023-04-11T17:44:00.980Z,98461.22
2023-04-11T17:46:46.743Z,98461.31
2023-04-11T17:49:32.154Z,98462.31
2023-04-11T17:52:17.738Z,98482.19
2023-04-11T17:55:06.381Z,98486.56
2023-04-11T17:57:53.371Z,98477.06
2023-04-11T18:00:52.598Z,98460.66
2023-04-11T18:03:41.764Z,98473.63
2023-04-11T18:06:29.939Z,98466.72
2023-04-11T18:09:18.370Z,98475.34
2023-04-11T18:12:03.821Z,98472.78
2023-04-11T18:14:49.163Z,98473.72
2023-04-11T18:17:38.306Z,98472.88
2023-04-11T18:20:23.942Z,98472.97
2023-04-11T18:23:09.349Z,98466.94
2023-04-11T18:25:54.750Z,98474.69
2023-04-11T18:28:40.235Z,98461.78
2023-04-11T18:31:25.866Z,98472.91
2023-04-11T18:34:11.736Z,98474.59
2023-04-11T18:36:57.655Z,98487.50
2023-04-11T18:39:42.852Z,98497.84
2023-04-11T18:42:28.388Z,98513.34
2023-04-11T18:45:15.061Z,98514.13
2023-04-11T18:48:00.910Z,98514.13
2023-04-11T18:50:48.731Z,98526.16
2023-04-11T18:53:36.598Z,98541.72
2023-04-11T18:56:22.371Z,98548.69
2023-04-11T18:59:09.631Z,98548.69
2023-04-11T19:01:55.963Z,98548.69
2023-04-11T19:04:46.142Z,98551.34
2023-04-11T19:07:31.904Z,98566.09
2023-04-11T19:10:17.398Z,98567.81
2023-04-11T19:13:03.147Z,98565.22
2023-04-11T19:15:48.716Z,98571.31
2023-04-11T19:18:34.013Z,98586.06
2023-04-11T19:21:19.308Z,98598.13
2023-04-11T19:24:05.689Z,98588.72
2023-04-11T19:26:52.796Z,98614.47
2023-04-11T19:29:38.402Z,98595.44
2023-04-11T19:32:23.877Z,98610.22
2023-04-11T19:35:10.845Z,98595.66
2023-04-11T19:37:56.439Z,98603.53
2023-04-11T19:40:42.112Z,98615.69
2023-04-11T19:43:27.337Z,98621.75
2023-04-11T19:46:12.748Z,98624.44
2023-04-11T19:48:58.028Z,98623.66
2023-04-11T19:51:43.419Z,98634.97
2023-04-11T19:54:28.907Z,98637.59
2023-04-11T19:57:14.378Z,98652.31
2023-04-11T19:59:59.773Z,98651.50
2023-04-11T20:02:47.107Z,98655.91
2023-04-11T20:05:32.680Z,98661.09
2023-04-11T20:08:18.923Z,98662.00
2023-04-11T20:11:05.691Z,98668.88
2023-04-11T20:13:51.368Z,98697.28
2023-04-11T20:16:36.728Z,98693.88
2023-04-11T20:19:27.520Z,98711.03
2023-04-11T20:22:18.447Z,98706.66
2023-04-11T20:25:04.260Z,98704.81
2023-04-11T20:27:50.104Z,98711.63
2023-04-11T20:30:38.199Z,98710.75
2023-04-11T20:33:23.746Z,98715.06
2023-04-11T20:36:09.285Z,98706.50
2023-04-11T20:38:55.730Z,98720.34
2023-04-11T20:41:41.858Z,98711.72
2023-04-11T20:44:27.633Z,98722.03
2023-04-11T20:47:12.970Z,98728.91
2023-04-11T20:50:04.123Z,98724.66
2023-04-11T20:52:53.181Z,98739.25
2023-04-11T20:55:39.075Z,98740.13
2023-04-11T20:58:24.379Z,98741.09
2023-04-11T21:01:09.728Z,98748.03
2023-04-11T21:03:57.574Z,98758.38
2023-04-11T21:06:44.920Z,98755.72
2023-04-11T21:09:30.260Z,98751.41
2023-04-11T21:12:16.362Z,98747.16
2023-04-11T21:15:03.640Z,98750.66
2023-04-11T21:17:50.502Z,98755.81
2023-04-11T21:20:36.382Z,98762.78
2023-04-11T21:23:22.338Z,98768.88
2023-04-11T21:26:08.135Z,98772.34
2023-04-11T21:28:53.388Z,98778.38
2023-04-11T21:31:38.909Z,98791.34
2023-04-11T21:34:24.321Z,98793.97
2023-04-11T21:37:09.706Z,98812.88
2023-04-11T21:39:55.475Z,98818.91
2023-04-11T21:42:41.100Z,98818.91
2023-04-11T21:45:27.498Z,98820.66
2023-04-11T21:48:12.750Z,98824.97
2023-04-11T21:50:58.085Z,98819.00
2023-04-11T21:53:43.743Z,98825.00
2023-04-11T21:56:29.377Z,98825.00
2023-04-11T21:59:15.011Z,98821.56
2023-04-11T22:02:00.541Z,98828.47
2023-04-11T22:05:03.810Z,98828.44
2023-04-11T22:07:51.162Z,98831.03
2023-04-11T22:10:47.454Z,98829.31
2023-04-11T22:13:35.035Z,98829.31
2023-04-11T22:16:26.376Z,98831.03
2023-04-11T22:19:11.933Z,98819.88
2023-04-11T22:21:57.272Z,98818.16
2023-04-11T22:24:42.599Z,98819.00
2023-04-11T22:27:29.557Z,98817.34
2023-04-11T22:30:14.955Z,98822.44
2023-04-11T22:33:01.948Z,98820.72
2023-04-11T22:35:47.883Z,98835.31
2023-04-11T22:38:35.239Z,98829.31
2023-04-11T22:41:22.025Z,98826.72
2023-04-11T22:44:07.635Z,98828.47
2023-04-11T22:47:07.466Z,98819.00
2023-04-11T22:49:52.698Z,98823.31
2023-04-11T22:52:38.080Z,98813.91
2023-04-11T22:55:24.825Z,98803.59
2023-04-11T22:58:10.582Z,98800.16
2023-04-11T23:00:56.077Z,98793.28
2023-04-11T23:03:42.339Z,98799.31
2023-04-11T23:06:27.895Z,98789.00
2023-04-11T23:09:14.994Z,98785.59
2023-04-11T23:12:00.842Z,98780.44
2023-04-11T23:14:46.650Z,98747.81
2023-04-11T23:17:31.944Z,98772.69
2023-04-11T23:20:17.880Z,98770.13
2023-04-11T23:23:04.217Z,98775.28
2023-04-11T23:25:49.792Z,98777.88
2023-04-11T23:28:35.126Z,98766.69
2023-04-11T23:31:20.696Z,98772.72
2023-04-11T23:34:07.023Z,98781.28
2023-04-11T23:36:52.961Z,98780.44
2023-04-11T23:39:38.086Z,98771.84
2023-04-11T23:42:23.523Z,98777.00
2023-04-11T23:45:10.793Z,98772.72
2023-04-11T23:47:56.313Z,98767.56
2023-04-11T23:50:41.778Z,98773.56
2023-04-11T23:53:26.987Z,98772.69
2023-04-11T23:56:12.840Z,98783.84
2023-04-11T23:58:58.025Z,98773.56
